Weather at Fundo de Buena Ventura Airport

Public forecast

Using degrees Celsius for public forecast. Weather courtesy of forecast.io.

Closest aviation weather report (METAR) to Fundo de Buena Ventura Airport

Closest report is Ignacio Agramonte International Airport, 35.6 nm (66.0 km) NE.

2024/04/13 12:50 (retrieved 25 minutes ago)

MUCM 131250Z 34004KT 2000 DZ SCT015 BKN020 24/24 Q1021

Closest aviation forecast (TAF) to Fundo de Buena Ventura Airport

Closest forecast is Ignacio Agramonte International Airport, 35.6 nm (66.0 km) NE.

2024/04/13 12:07 (retrieved 1 hour ago)

TAF MUCM 131100Z 1312/1412 04008KT 9000 SCT020 TEMPO 1312/1313 5000 BR BECMG 1315/1316 02011KT TEMPO 1317/1321 5000 RA BKN020 BECMG 1401/1403 05006KT